<?xml version="1.0" encoding="UTF-8" standalone="no" ?>
<gpx xmlns="http://www.topografix.com/GPX/1/1" xmlns:xsi="http://www.w3.org/2001/XMLSchema-instance" xsi:schemaLocation="http://www.topografix.com/GPX/1/1 http://www.topografix.com/GPX/1/1/gpx.xsd" version="1.1" creator="VisuGPX - https://www.visugpx.com">
  <metadata>
    <name>De Meillerie à Salvigny</name>
    <desc><![CDATA[Randonnée en Haute-Savoie]]></desc>
  </metadata>
  <trk>
    <name><![CDATA[ACTIVE LOG: 27 JUL 2015 15:25]]></name>
    <trkseg>
      <trkpt lat="46.27642" lon="6.79923">
        <ele>1307.53</ele>
        <time>2015-07-27T13:26:30Z</time>
      </trkpt>
      <trkpt lat="46.27616" lon="6.79953">
        <ele>1312.34</ele>
        <time>2015-07-27T13:27:35Z</time>
      </trkpt>
      <trkpt lat="46.27585" lon="6.79986">
        <ele>1322.43</ele>
        <time>2015-07-27T13:28:40Z</time>
      </trkpt>
      <trkpt lat="46.27542" lon="6.79997">
        <ele>1333.01</ele>
        <time>2015-07-27T13:29:45Z</time>
      </trkpt>
      <trkpt lat="46.27521" lon="6.80009">
        <ele>1344.06</ele>
        <time>2015-07-27T13:30:50Z</time>
      </trkpt>
      <trkpt lat="46.27487" lon="6.80013">
        <ele>1356.56</ele>
        <time>2015-07-27T13:31:55Z</time>
      </trkpt>
      <trkpt lat="46.27438" lon="6.80011">
        <ele>1367.13</ele>
        <time>2015-07-27T13:33:00Z</time>
      </trkpt>
      <trkpt lat="46.27357" lon="6.79996">
        <ele>1380.11</ele>
        <time>2015-07-27T13:34:05Z</time>
      </trkpt>
      <trkpt lat="46.27303" lon="6.79983">
        <ele>1389.24</ele>
        <time>2015-07-27T13:35:10Z</time>
      </trkpt>
      <trkpt lat="46.27261" lon="6.79964">
        <ele>1398.37</ele>
        <time>2015-07-27T13:36:15Z</time>
      </trkpt>
      <trkpt lat="46.27227" lon="6.79924">
        <ele>1409.43</ele>
        <time>2015-07-27T13:37:20Z</time>
      </trkpt>
      <trkpt lat="46.27221" lon="6.79967">
        <ele>1419.52</ele>
        <time>2015-07-27T13:38:25Z</time>
      </trkpt>
      <trkpt lat="46.27195" lon="6.80001">
        <ele>1428.66</ele>
        <time>2015-07-27T13:39:30Z</time>
      </trkpt>
      <trkpt lat="46.27173" lon="6.79992">
        <ele>1435.39</ele>
        <time>2015-07-27T13:40:35Z</time>
      </trkpt>
      <trkpt lat="46.27141" lon="6.79975">
        <ele>1446.44</ele>
        <time>2015-07-27T13:41:40Z</time>
      </trkpt>
      <trkpt lat="46.27116" lon="6.79954">
        <ele>1451.73</ele>
        <time>2015-07-27T13:42:45Z</time>
      </trkpt>
      <trkpt lat="46.2708" lon="6.79921">
        <ele>1461.34</ele>
        <time>2015-07-27T13:43:50Z</time>
      </trkpt>
      <trkpt lat="46.27038" lon="6.79921">
        <ele>1470.95</ele>
        <time>2015-07-27T13:44:55Z</time>
      </trkpt>
      <trkpt lat="46.26995" lon="6.79917">
        <ele>1482.01</ele>
        <time>2015-07-27T13:46:00Z</time>
      </trkpt>
      <trkpt lat="46.2696" lon="6.79913">
        <ele>1489.7</ele>
        <time>2015-07-27T13:47:05Z</time>
      </trkpt>
      <trkpt lat="46.26935" lon="6.79896">
        <ele>1497.87</ele>
        <time>2015-07-27T13:48:10Z</time>
      </trkpt>
      <trkpt lat="46.26922" lon="6.79915">
        <ele>1502.2</ele>
        <time>2015-07-27T13:49:15Z</time>
      </trkpt>
      <trkpt lat="46.26914" lon="6.79958">
        <ele>1512.77</ele>
        <time>2015-07-27T13:50:20Z</time>
      </trkpt>
      <trkpt lat="46.26927" lon="6.80008">
        <ele>1516.62</ele>
        <time>2015-07-27T13:51:25Z</time>
      </trkpt>
      <trkpt lat="46.26941" lon="6.80027">
        <ele>1516.14</ele>
        <time>2015-07-27T13:52:30Z</time>
      </trkpt>
      <trkpt lat="46.2694" lon="6.80087">
        <ele>1516.62</ele>
        <time>2015-07-27T13:53:35Z</time>
      </trkpt>
      <trkpt lat="46.26932" lon="6.80092">
        <ele>1519.98</ele>
        <time>2015-07-27T13:54:40Z</time>
      </trkpt>
      <trkpt lat="46.26915" lon="6.80045">
        <ele>1530.56</ele>
        <time>2015-07-27T13:55:45Z</time>
      </trkpt>
      <trkpt lat="46.26867" lon="6.8005">
        <ele>1540.65</ele>
        <time>2015-07-27T13:56:50Z</time>
      </trkpt>
      <trkpt lat="46.26867" lon="6.80054">
        <ele>1549.3</ele>
        <time>2015-07-27T13:57:55Z</time>
      </trkpt>
      <trkpt lat="46.26851" lon="6.80106">
        <ele>1558.43</ele>
        <time>2015-07-27T13:59:00Z</time>
      </trkpt>
      <trkpt lat="46.26836" lon="6.80119">
        <ele>1568.05</ele>
        <time>2015-07-27T14:00:05Z</time>
      </trkpt>
      <trkpt lat="46.26835" lon="6.80108">
        <ele>1569.01</ele>
        <time>2015-07-27T14:01:10Z</time>
      </trkpt>
      <trkpt lat="46.26816" lon="6.80103">
        <ele>1574.78</ele>
        <time>2015-07-27T14:02:15Z</time>
      </trkpt>
      <trkpt lat="46.26801" lon="6.80073">
        <ele>1584.87</ele>
        <time>2015-07-27T14:03:20Z</time>
      </trkpt>
      <trkpt lat="46.26797" lon="6.80058">
        <ele>1587.27</ele>
        <time>2015-07-27T14:04:09Z</time>
      </trkpt>
      <trkpt lat="46.26798" lon="6.80056">
        <ele>1586.79</ele>
        <time>2015-07-27T14:07:32Z</time>
      </trkpt>
      <trkpt lat="46.26765" lon="6.80063">
        <ele>1596.41</ele>
        <time>2015-07-27T14:08:37Z</time>
      </trkpt>
      <trkpt lat="46.26759" lon="6.80109">
        <ele>1605.06</ele>
        <time>2015-07-27T14:09:42Z</time>
      </trkpt>
      <trkpt lat="46.26741" lon="6.80115">
        <ele>1615.63</ele>
        <time>2015-07-27T14:10:47Z</time>
      </trkpt>
      <trkpt lat="46.26713" lon="6.80089">
        <ele>1624.28</ele>
        <time>2015-07-27T14:11:52Z</time>
      </trkpt>
      <trkpt lat="46.26694" lon="6.80056">
        <ele>1633.9</ele>
        <time>2015-07-27T14:12:57Z</time>
      </trkpt>
      <trkpt lat="46.26681" lon="6.8004">
        <ele>1642.55</ele>
        <time>2015-07-27T14:14:02Z</time>
      </trkpt>
      <trkpt lat="46.26665" lon="6.80021">
        <ele>1652.64</ele>
        <time>2015-07-27T14:15:07Z</time>
      </trkpt>
      <trkpt lat="46.26646" lon="6.79995">
        <ele>1661.78</ele>
        <time>2015-07-27T14:16:12Z</time>
      </trkpt>
      <trkpt lat="46.26641" lon="6.79974">
        <ele>1665.14</ele>
        <time>2015-07-27T14:17:17Z</time>
      </trkpt>
      <trkpt lat="46.26633" lon="6.79965">
        <ele>1668.51</ele>
        <time>2015-07-27T14:18:22Z</time>
      </trkpt>
      <trkpt lat="46.26617" lon="6.79963">
        <ele>1678.6</ele>
        <time>2015-07-27T14:19:27Z</time>
      </trkpt>
      <trkpt lat="46.266" lon="6.79934">
        <ele>1690.14</ele>
        <time>2015-07-27T14:20:32Z</time>
      </trkpt>
      <trkpt lat="46.26581" lon="6.79904">
        <ele>1698.31</ele>
        <time>2015-07-27T14:21:37Z</time>
      </trkpt>
      <trkpt lat="46.26577" lon="6.79896">
        <ele>1699.75</ele>
        <time>2015-07-27T14:22:42Z</time>
      </trkpt>
      <trkpt lat="46.26571" lon="6.79883">
        <ele>1703.59</ele>
        <time>2015-07-27T14:23:47Z</time>
      </trkpt>
      <trkpt lat="46.26555" lon="6.7983">
        <ele>1710.8</ele>
        <time>2015-07-27T14:24:52Z</time>
      </trkpt>
      <trkpt lat="46.26555" lon="6.79775">
        <ele>1720.42</ele>
        <time>2015-07-27T14:25:57Z</time>
      </trkpt>
      <trkpt lat="46.26551" lon="6.79735">
        <ele>1730.51</ele>
        <time>2015-07-27T14:27:02Z</time>
      </trkpt>
      <trkpt lat="46.26557" lon="6.79677">
        <ele>1734.36</ele>
        <time>2015-07-27T14:28:07Z</time>
      </trkpt>
      <trkpt lat="46.26567" lon="6.79625">
        <ele>1738.68</ele>
        <time>2015-07-27T14:29:12Z</time>
      </trkpt>
      <trkpt lat="46.26581" lon="6.79567">
        <ele>1746.37</ele>
        <time>2015-07-27T14:30:17Z</time>
      </trkpt>
      <trkpt lat="46.26581" lon="6.79521">
        <ele>1751.66</ele>
        <time>2015-07-27T14:31:22Z</time>
      </trkpt>
      <trkpt lat="46.26597" lon="6.79453">
        <ele>1758.87</ele>
        <time>2015-07-27T14:32:27Z</time>
      </trkpt>
      <trkpt lat="46.26635" lon="6.79438">
        <ele>1767.04</ele>
        <time>2015-07-27T14:33:32Z</time>
      </trkpt>
      <trkpt lat="46.2667" lon="6.79451">
        <ele>1774.25</ele>
        <time>2015-07-27T14:34:37Z</time>
      </trkpt>
      <trkpt lat="46.26695" lon="6.79414">
        <ele>1781.94</ele>
        <time>2015-07-27T14:35:42Z</time>
      </trkpt>
      <trkpt lat="46.26715" lon="6.7938">
        <ele>1793.48</ele>
        <time>2015-07-27T14:36:47Z</time>
      </trkpt>
      <trkpt lat="46.26718" lon="6.79358">
        <ele>1801.17</ele>
        <time>2015-07-27T14:37:52Z</time>
      </trkpt>
      <trkpt lat="46.2671" lon="6.79313">
        <ele>1811.74</ele>
        <time>2015-07-27T14:38:57Z</time>
      </trkpt>
      <trkpt lat="46.26691" lon="6.79272">
        <ele>1821.84</ele>
        <time>2015-07-27T14:40:02Z</time>
      </trkpt>
      <trkpt lat="46.26668" lon="6.79243">
        <ele>1830.01</ele>
        <time>2015-07-27T14:41:07Z</time>
      </trkpt>
      <trkpt lat="46.2666" lon="6.79218">
        <ele>1837.7</ele>
        <time>2015-07-27T14:42:12Z</time>
      </trkpt>
      <trkpt lat="46.26684" lon="6.79198">
        <ele>1846.83</ele>
        <time>2015-07-27T14:43:17Z</time>
      </trkpt>
      <trkpt lat="46.267" lon="6.79177">
        <ele>1857.4</ele>
        <time>2015-07-27T14:44:22Z</time>
      </trkpt>
      <trkpt lat="46.26728" lon="6.79185">
        <ele>1868.94</ele>
        <time>2015-07-27T14:45:27Z</time>
      </trkpt>
      <trkpt lat="46.26742" lon="6.79182">
        <ele>1873.27</ele>
        <time>2015-07-27T14:46:32Z</time>
      </trkpt>
      <trkpt lat="46.26742" lon="6.79183">
        <ele>1871.34</ele>
        <time>2015-07-27T14:47:03Z</time>
      </trkpt>
    </trkseg>
  </trk>
</gpx>